createdAt,value
2018-01-07T00:00:31.536Z,80.09
2018-01-07T00:02:58.991Z,80.02
2018-01-07T00:05:26.509Z,80.15
2018-01-07T00:07:53.980Z,80.43
2018-01-07T00:10:21.474Z,80.52
2018-01-07T00:12:49.076Z,80.11
2018-01-07T00:15:16.562Z,80.40
2018-01-07T00:17:44.064Z,80.47
2018-01-07T00:20:11.553Z,80.79
2018-01-07T00:22:39.060Z,80.62
2018-01-07T00:25:07.343Z,80.53
2018-01-07T00:27:34.794Z,80.78
2018-01-07T00:30:02.354Z,80.59
2018-01-07T00:32:29.936Z,80.96
2018-01-07T00:34:57.403Z,81.01
2018-01-07T00:37:24.903Z,81.16
2018-01-07T00:39:52.402Z,81.19
2018-01-07T00:42:19.918Z,81.27
2018-01-07T00:44:47.462Z,81.40
2018-01-07T00:47:14.941Z,81.54
2018-01-07T00:49:42.424Z,81.40
2018-01-07T00:52:09.922Z,81.74
2018-01-07T00:54:37.411Z,82.12
2018-01-07T00:57:04.871Z,82.07
2018-01-07T00:59:32.351Z,82.06
2018-01-07T01:01:59.836Z,82.17
2018-01-07T01:04:27.329Z,82.38
2018-01-07T01:06:54.835Z,82.11
2018-01-07T01:09:22.290Z,82.31
2018-01-07T01:11:49.749Z,82.20
2018-01-07T01:14:17.239Z,82.22
2018-01-07T01:16:44.714Z,82.59
2018-01-07T01:19:12.213Z,82.54
2018-01-07T01:21:39.687Z,82.28
2018-01-07T01:24:07.162Z,82.27
2018-01-07T01:26:34.624Z,81.90
2018-01-07T01:29:02.083Z,82.25
2018-01-07T01:31:29.555Z,81.84
2018-01-07T01:33:57.011Z,82.02
2018-01-07T01:36:24.544Z,82.33
2018-01-07T01:38:52.069Z,82.26
2018-01-07T01:41:19.526Z,82.43
2018-01-07T01:43:47.815Z,82.75
2018-01-07T01:46:15.295Z,82.57
2018-01-07T01:48:42.787Z,82.91
2018-01-07T01:51:10.339Z,83.16
2018-01-07T01:53:37.803Z,83.18
2018-01-07T01:56:05.330Z,83.29
2018-01-07T01:58:32.819Z,82.74
2018-01-07T02:01:00.304Z,82.96
2018-01-07T02:03:27.813Z,82.82
2018-01-07T02:05:55.295Z,82.90
2018-01-07T02:08:22.773Z,82.92
2018-01-07T02:10:50.263Z,82.85
2018-01-07T02:13:17.772Z,83.08
2018-01-07T02:15:45.239Z,82.91
2018-01-07T02:18:13.499Z,82.97
2018-01-07T02:20:40.987Z,83.11
2018-01-07T02:23:08.460Z,83.35
2018-01-07T02:25:35.954Z,83.36
2018-01-07T02:28:03.434Z,83.15
2018-01-07T02:30:30.944Z,83.17
2018-01-07T02:32:58.503Z,83.29
2018-01-07T02:35:25.985Z,83.07
2018-01-07T02:37:53.515Z,83.17
2018-01-07T02:40:22.308Z,83.00
2018-01-07T02:42:49.864Z,83.33
2018-01-07T02:45:18.159Z,83.56
2018-01-07T02:47:45.667Z,83.72
2018-01-07T02:50:14.111Z,83.59
2018-01-07T02:52:41.936Z,83.85
2018-01-07T02:55:09.426Z,84.09
2018-01-07T02:57:36.896Z,84.21
2018-01-07T03:00:04.402Z,84.04
2018-01-07T03:02:31.898Z,83.89
2018-01-07T03:04:59.426Z,83.62
2018-01-07T03:07:26.957Z,83.86
2018-01-07T03:09:54.411Z,83.84
2018-01-07T03:12:21.877Z,84.16
2018-01-07T03:14:49.357Z,84.25
2018-01-07T03:17:16.813Z,84.25
2018-01-07T03:19:44.301Z,84.08
2018-01-07T03:22:12.161Z,84.27
2018-01-07T03:24:39.635Z,84.24
2018-01-07T03:27:07.123Z,84.41
2018-01-07T03:29:34.609Z,84.33
2018-01-07T03:32:02.143Z,84.24
2018-01-07T03:34:29.642Z,84.14
2018-01-07T03:36:58.011Z,84.31
2018-01-07T03:39:25.543Z,83.98
2018-01-07T03:41:53.003Z,83.85
2018-01-07T03:44:20.525Z,83.92
2018-01-07T03:46:48.003Z,83.39
2018-01-07T03:49:15.498Z,83.03
2018-01-07T03:51:43.017Z,82.96
2018-01-07T03:54:10.533Z,82.89
2018-01-07T03:56:38.006Z,83.32
2018-01-07T03:59:05.462Z,83.46
2018-01-07T04:01:32.985Z,83.17
2018-01-07T04:04:00.452Z,83.27
2018-01-07T04:06:27.908Z,83.55
2018-01-07T04:08:55.583Z,83.26
2018-01-07T04:11:23.075Z,82.62
2018-01-07T04:13:50.571Z,82.24
2018-01-07T04:16:18.119Z,81.34
2018-01-07T04:18:45.621Z,81.27
2018-01-07T04:21:13.182Z,82.03
2018-01-07T04:23:40.630Z,82.29
2018-01-07T04:26:08.079Z,82.62
2018-01-07T04:28:35.943Z,82.85
2018-01-07T04:31:03.474Z,83.44
2018-01-07T04:33:30.970Z,83.69
2018-01-07T04:35:58.457Z,83.66
2018-01-07T04:38:25.895Z,83.47
2018-01-07T04:40:53.374Z,83.56
2018-01-07T04:43:20.838Z,83.46
2018-01-07T04:45:48.367Z,83.50
2018-01-07T04:48:16.122Z,82.89
2018-01-07T04:50:43.606Z,82.11
2018-01-07T04:53:11.115Z,82.11
2018-01-07T04:55:38.575Z,82.49
2018-01-07T04:58:06.050Z,82.27
2018-01-07T05:00:33.601Z,81.77
2018-01-07T05:03:01.055Z,81.83
2018-01-07T05:05:28.515Z,81.76
2018-01-07T05:07:56.038Z,81.75
2018-01-07T05:10:23.543Z,81.47
2018-01-07T05:12:50.991Z,81.97
2018-01-07T05:15:18.464Z,82.24
2018-01-07T05:17:45.933Z,82.74
2018-01-07T05:20:13.455Z,82.30
2018-01-07T05:22:41.031Z,81.72
2018-01-07T05:25:08.549Z,81.23
2018-01-07T05:27:36.038Z,81.31
2018-01-07T05:30:03.558Z,81.56
2018-01-07T05:32:31.004Z,81.73
2018-01-07T05:34:58.500Z,82.07
2018-01-07T05:37:26.002Z,81.82
2018-01-07T05:39:53.531Z,81.91
2018-01-07T05:42:21.051Z,82.12
2018-01-07T05:44:48.589Z,82.31
2018-01-07T05:47:16.104Z,83.31
2018-01-07T05:49:43.572Z,83.40
2018-01-07T05:52:11.043Z,82.97
2018-01-07T05:54:38.573Z,82.99
2018-01-07T05:57:06.067Z,82.96
2018-01-07T05:59:33.564Z,83.45
2018-01-07T06:02:01.092Z,83.12
2018-01-07T06:04:28.569Z,83.31
2018-01-07T06:06:56.030Z,82.95
2018-01-07T06:09:23.493Z,81.65
2018-01-07T06:11:51.090Z,82.05
2018-01-07T06:14:18.580Z,82.23
2018-01-07T06:16:46.100Z,82.52
2018-01-07T06:19:13.666Z,82.05
2018-01-07T06:21:41.121Z,82.28
2018-01-07T06:24:08.669Z,82.40
2018-01-07T06:26:36.164Z,82.19
2018-01-07T06:29:03.620Z,82.16
2018-01-07T06:31:31.133Z,81.87
2018-01-07T06:33:58.986Z,81.85
2018-01-07T06:36:26.475Z,81.73
2018-01-07T06:38:53.927Z,81.25
2018-01-07T06:41:21.836Z,81.13
2018-01-07T06:43:49.290Z,81.94
2018-01-07T06:46:16.752Z,82.15
2018-01-07T06:48:44.244Z,82.23
2018-01-07T06:51:11.725Z,82.21
2018-01-07T06:53:39.202Z,81.99
2018-01-07T06:56:06.720Z,81.67
2018-01-07T06:58:34.203Z,81.14
2018-01-07T07:01:01.663Z,81.46
2018-01-07T07:03:29.119Z,81.58
2018-01-07T07:05:56.603Z,81.96
2018-01-07T07:08:24.111Z,81.75
2018-01-07T07:10:51.640Z,81.75
2018-01-07T07:13:19.146Z,82.06
2018-01-07T07:15:46.674Z,82.12
2018-01-07T07:18:14.147Z,82.02
2018-01-07T07:20:41.635Z,82.11
2018-01-07T07:23:09.155Z,82.35
2018-01-07T07:25:37.091Z,82.22
2018-01-07T07:28:04.606Z,82.05
2018-01-07T07:30:33.200Z,82.18
2018-01-07T07:33:00.698Z,82.35
2018-01-07T07:35:28.157Z,82.40
2018-01-07T07:37:55.649Z,82.34
2018-01-07T07:40:23.131Z,82.62
2018-01-07T07:42:50.644Z,82.98
2018-01-07T07:45:18.194Z,82.88
2018-01-07T07:47:45.725Z,82.90
2018-01-07T07:50:13.187Z,82.79
2018-01-07T07:52:40.760Z,83.02
2018-01-07T07:55:08.287Z,83.01
2018-01-07T07:57:35.838Z,82.31
2018-01-07T08:00:03.379Z,82.34
2018-01-07T08:02:30.875Z,81.92
2018-01-07T08:04:58.369Z,81.62
2018-01-07T08:07:25.842Z,81.78
2018-01-07T08:09:53.302Z,81.24
2018-01-07T08:12:20.796Z,81.75
2018-01-07T08:14:48.375Z,81.50
2018-01-07T08:17:15.845Z,81.69
2018-01-07T08:19:43.393Z,82.27
2018-01-07T08:22:10.880Z,82.23
2018-01-07T08:24:38.351Z,82.78
2018-01-07T08:27:05.847Z,82.84
2018-01-07T08:29:33.352Z,82.28
2018-01-07T08:32:00.855Z,82.75
2018-01-07T08:34:28.353Z,83.59
2018-01-07T08:36:55.855Z,83.65
2018-01-07T08:39:23.342Z,83.75
2018-01-07T08:41:50.809Z,83.74
2018-01-07T08:44:18.339Z,83.29
2018-01-07T08:46:45.799Z,83.15
2018-01-07T08:49:13.296Z,83.15
2018-01-07T08:51:40.884Z,82.64
2018-01-07T08:54:08.445Z,83.05
2018-01-07T08:56:35.932Z,82.58
2018-01-07T08:59:03.470Z,82.44
2018-01-07T09:01:30.956Z,82.73
2018-01-07T09:03:59.444Z,82.58
2018-01-07T09:06:27.030Z,82.25
2018-01-07T09:08:54.546Z,82.44
2018-01-07T09:11:22.088Z,82.49
2018-01-07T09:13:49.565Z,82.07
2018-01-07T09:16:17.052Z,82.25
2018-01-07T09:18:44.580Z,82.59
2018-01-07T09:21:12.167Z,82.37
2018-01-07T09:23:39.700Z,82.06
2018-01-07T09:26:07.191Z,82.26
2018-01-07T09:28:35.792Z,82.68
2018-01-07T09:31:17.618Z,82.16
2018-01-07T09:33:45.076Z,82.74
2018-01-07T09:36:12.558Z,82.08
2018-01-07T09:38:40.073Z,81.75
2018-01-07T09:41:07.578Z,81.51
2018-01-07T09:43:35.057Z,81.99
2018-01-07T09:46:02.585Z,82.41
2018-01-07T09:48:31.185Z,82.45
2018-01-07T09:50:58.857Z,82.19
2018-01-07T09:53:26.444Z,82.11
2018-01-07T09:55:54.187Z,81.55
2018-01-07T09:58:21.765Z,81.69
2018-01-07T10:00:49.311Z,81.22
2018-01-07T10:03:16.940Z,81.57
2018-01-07T10:05:44.527Z,82.18
2018-01-07T10:08:11.992Z,81.61
2018-01-07T10:10:39.434Z,81.71
2018-01-07T10:13:06.894Z,81.48
2018-01-07T10:15:34.369Z,81.50
2018-01-07T10:18:01.915Z,81.75
2018-01-07T10:20:34.834Z,81.58
2018-01-07T10:23:03.137Z,81.74
2018-01-07T10:25:31.414Z,81.38
2018-01-07T10:27:58.918Z,81.85
2018-01-07T10:30:26.452Z,80.89
2018-01-07T10:32:53.971Z,82.05
2018-01-07T10:35:21.567Z,82.42
2018-01-07T10:37:49.059Z,80.19
2018-01-07T10:40:16.581Z,80.82
2018-01-07T10:42:44.068Z,80.95
2018-01-07T10:45:11.574Z,80.78
2018-01-07T10:47:39.073Z,80.79
2018-01-07T10:50:06.526Z,80.55
2018-01-07T10:52:33.969Z,80.83
2018-01-07T10:55:01.809Z,81.34
2018-01-07T10:57:29.484Z,80.55
2018-01-07T10:59:56.958Z,80.31
2018-01-07T11:02:30.096Z,80.77
2018-01-07T11:04:57.570Z,80.71
2018-01-07T11:07:25.114Z,80.69
2018-01-07T11:09:52.659Z,80.39
2018-01-07T11:12:20.144Z,80.32
2018-01-07T11:14:47.686Z,80.72
2018-01-07T11:17:15.298Z,80.71
2018-01-07T11:19:42.806Z,80.91
2018-01-07T11:22:10.319Z,81.06
2018-01-07T11:24:38.687Z,80.01
2018-01-07T11:27:06.164Z,80.61
2018-01-07T11:29:33.678Z,80.99
2018-01-07T11:32:01.214Z,80.51
2018-01-07T11:34:28.723Z,80.63
2018-01-07T11:36:56.844Z,80.70
2018-01-07T11:39:24.389Z,80.17
2018-01-07T11:41:51.850Z,80.70
2018-01-07T11:44:19.339Z,80.82
2018-01-07T11:46:46.830Z,80.75
2018-01-07T11:49:14.353Z,80.93
2018-01-07T11:51:41.851Z,81.00
2018-01-07T11:54:09.319Z,81.27
2018-01-07T11:56:36.810Z,80.70
2018-01-07T11:59:04.307Z,81.19
2018-01-07T12:01:36.864Z,80.23
2018-01-07T12:04:04.390Z,80.73
2018-01-07T12:06:31.835Z,80.40
2018-01-07T12:08:59.321Z,79.83
2018-01-07T12:11:26.842Z,80.72
2018-01-07T12:13:54.467Z,80.62
2018-01-07T12:16:22.569Z,80.63
2018-01-07T12:18:50.055Z,80.86
2018-01-07T12:21:18.044Z,80.96
2018-01-07T12:23:45.528Z,80.67
2018-01-07T12:26:13.046Z,80.48
2018-01-07T12:28:40.577Z,81.20
2018-01-07T12:31:08.100Z,81.30
2018-01-07T12:33:35.600Z,81.12
2018-01-07T12:36:03.066Z,80.87
2018-01-07T12:38:30.648Z,80.80
2018-01-07T12:40:58.128Z,80.53
2018-01-07T12:43:25.632Z,80.42
2018-01-07T12:45:53.124Z,80.36
2018-01-07T12:48:20.572Z,80.14
2018-01-07T12:50:48.179Z,80.22
2018-01-07T12:53:15.647Z,80.46
2018-01-07T12:55:43.106Z,80.24
2018-01-07T12:58:10.626Z,80.19
2018-01-07T13:00:38.120Z,81.04
2018-01-07T13:03:05.607Z,80.54
2018-01-07T13:05:33.131Z,80.55
2018-01-07T13:08:00.658Z,79.52
2018-01-07T13:10:28.161Z,80.12
2018-01-07T13:12:55.718Z,80.69
2018-01-07T13:15:23.186Z,80.79
2018-01-07T13:17:50.792Z,80.48
2018-01-07T13:20:18.243Z,80.64
2018-01-07T13:22:45.808Z,80.99
2018-01-07T13:25:13.279Z,80.89
2018-01-07T13:27:40.866Z,80.51
2018-01-07T13:30:08.502Z,80.24
2018-01-07T13:32:41.077Z,80.05
2018-01-07T13:35:08.694Z,80.65
2018-01-07T13:37:36.773Z,80.57
2018-01-07T13:40:04.431Z,80.20
2018-01-07T13:42:32.051Z,80.51
2018-01-07T13:44:59.702Z,80.33
2018-01-07T13:47:27.239Z,80.73
2018-01-07T13:49:54.735Z,81.00
2018-01-07T13:52:22.248Z,80.92
2018-01-07T13:54:49.787Z,81.20
2018-01-07T13:57:17.242Z,80.92
2018-01-07T13:59:44.768Z,80.79
2018-01-07T14:02:12.248Z,80.72
2018-01-07T14:04:39.761Z,80.85
2018-01-07T14:07:07.319Z,81.02
2018-01-07T14:09:34.832Z,80.88
2018-01-07T14:12:02.396Z,81.06
2018-01-07T14:14:30.018Z,80.64
2018-01-07T14:16:57.526Z,80.75
2018-01-07T14:19:25.114Z,80.20
2018-01-07T14:21:52.601Z,80.57
2018-01-07T14:24:20.088Z,80.76
2018-01-07T14:26:47.571Z,80.41
2018-01-07T14:29:15.052Z,80.66
2018-01-07T14:31:42.547Z,80.59
2018-01-07T14:34:10.216Z,80.86
2018-01-07T14:36:37.708Z,80.24
2018-01-07T14:39:05.222Z,80.23
2018-01-07T14:41:32.740Z,80.76
2018-01-07T14:44:00.278Z,80.92
2018-01-07T14:46:27.831Z,80.88
2018-01-07T14:48:55.391Z,80.21
2018-01-07T14:51:22.882Z,80.34
2018-01-07T14:53:50.362Z,80.71
2018-01-07T14:56:17.841Z,80.64
2018-01-07T14:58:45.444Z,80.89
2018-01-07T15:01:13.035Z,81.40
2018-01-07T15:03:40.605Z,81.08
2018-01-07T15:06:08.143Z,81.21
2018-01-07T15:08:35.632Z,80.79
2018-01-07T15:11:03.140Z,80.68
2018-01-07T15:13:30.634Z,81.01
2018-01-07T15:15:58.249Z,80.98
2018-01-07T15:18:26.841Z,81.08
2018-01-07T15:20:54.499Z,81.34
2018-01-07T15:23:22.020Z,81.34
2018-01-07T15:25:49.519Z,81.18
2018-01-07T15:28:16.988Z,81.18
2018-01-07T15:30:44.607Z,81.24
2018-01-07T15:33:12.356Z,80.82
2018-01-07T15:35:39.929Z,80.96
2018-01-07T15:38:11.685Z,81.15
2018-01-07T15:40:44.345Z,81.51
2018-01-07T15:43:11.816Z,81.13
2018-01-07T15:45:39.587Z,80.91
2018-01-07T15:48:07.093Z,80.73
2018-01-07T15:50:34.623Z,80.60
2018-01-07T15:53:02.267Z,80.49
2018-01-07T15:55:29.840Z,80.79
2018-01-07T15:57:57.636Z,81.05
2018-01-07T16:00:25.966Z,81.10
2018-01-07T16:02:53.617Z,80.94
2018-01-07T16:05:21.153Z,80.48
2018-01-07T16:07:48.651Z,80.33
2018-01-07T16:10:16.239Z,80.16
2018-01-07T16:12:43.767Z,80.68
2018-01-07T16:15:11.236Z,80.71
2018-01-07T16:17:38.766Z,80.98
2018-01-07T16:20:06.246Z,80.41
2018-01-07T16:22:33.844Z,80.37
2018-01-07T16:25:01.347Z,80.23
2018-01-07T16:27:28.954Z,80.08
2018-01-07T16:29:56.521Z,80.63
2018-01-07T16:32:24.062Z,80.16
2018-01-07T16:34:51.563Z,80.26
2018-01-07T16:37:19.470Z,80.63
2018-01-07T16:39:46.924Z,80.11
2018-01-07T16:42:14.520Z,80.04
2018-01-07T16:44:42.020Z,80.28
2018-01-07T16:47:09.622Z,80.50
2018-01-07T16:49:37.214Z,80.14
2018-01-07T16:52:04.815Z,80.33
2018-01-07T16:54:32.637Z,80.22
2018-01-07T16:57:00.155Z,79.83
2018-01-07T16:59:27.604Z,79.82
2018-01-07T17:01:56.401Z,79.85
2018-01-07T17:04:23.933Z,79.83
2018-01-07T17:06:51.406Z,79.69
2018-01-07T17:09:18.921Z,79.84
2018-01-07T17:11:46.549Z,80.04
2018-01-07T17:14:14.077Z,79.75
2018-01-07T17:16:41.925Z,80.00
2018-01-07T17:19:09.565Z,79.57
2018-01-07T17:21:37.058Z,79.70
2018-01-07T17:24:04.781Z,79.99
2018-01-07T17:26:32.318Z,79.99
2018-01-07T17:28:59.847Z,79.86
2018-01-07T17:31:27.426Z,79.49
2018-01-07T17:33:54.982Z,79.77
2018-01-07T17:36:22.511Z,80.00
2018-01-07T17:38:50.023Z,79.97
2018-01-07T17:41:17.533Z,79.71
2018-01-07T17:43:45.149Z,79.33
2018-01-07T17:46:13.719Z,79.58
2018-01-07T17:48:41.641Z,79.67
2018-01-07T17:51:09.246Z,79.45
2018-01-07T17:53:36.708Z,79.72
2018-01-07T17:56:04.289Z,79.90
2018-01-07T17:58:31.882Z,79.65
2018-01-07T18:00:59.342Z,79.75
2018-01-07T18:03:26.854Z,79.65
2018-01-07T18:05:55.191Z,79.46
2018-01-07T18:08:22.770Z,80.33
2018-01-07T18:10:50.366Z,80.05
2018-01-07T18:13:17.900Z,79.63
2018-01-07T18:15:45.390Z,79.97
2018-01-07T18:18:12.931Z,79.87
2018-01-07T18:20:40.497Z,80.18
2018-01-07T18:23:08.018Z,80.39
2018-01-07T18:25:35.559Z,80.24
2018-01-07T18:28:03.322Z,80.14
2018-01-07T18:30:30.820Z,80.20
2018-01-07T18:32:58.534Z,80.02
2018-01-07T18:35:26.421Z,79.76
2018-01-07T18:37:54.178Z,79.88
2018-01-07T18:40:21.681Z,80.20
2018-01-07T18:42:49.574Z,80.25
2018-01-07T18:45:17.178Z,80.14
2018-01-07T18:47:44.658Z,79.98
2018-01-07T18:50:12.128Z,80.08
2018-01-07T18:52:39.683Z,80.44
2018-01-07T18:55:07.248Z,80.16
2018-01-07T18:57:34.857Z,80.69
2018-01-07T19:00:02.446Z,80.36
2018-01-07T19:02:30.074Z,80.30
2018-01-07T19:04:57.589Z,80.32
2018-01-07T19:07:25.145Z,80.24
2018-01-07T19:09:52.716Z,80.09
2018-01-07T19:12:20.219Z,80.47
2018-01-07T19:14:47.730Z,80.59
2018-01-07T19:17:15.329Z,80.46
2018-01-07T19:19:42.895Z,80.52
2018-01-07T19:22:10.393Z,80.77
2018-01-07T19:24:37.893Z,80.57
2018-01-07T19:27:05.399Z,80.47
2018-01-07T19:29:32.939Z,80.37
2018-01-07T19:32:00.500Z,80.36
2018-01-07T19:34:30.903Z,80.14
2018-01-07T19:36:59.362Z,80.34
2018-01-07T19:39:26.929Z,80.31
2018-01-07T19:41:54.511Z,80.69
2018-01-07T19:44:22.047Z,80.38
2018-01-07T19:46:50.216Z,80.33
2018-01-07T19:49:17.724Z,80.62
2018-01-07T19:51:45.338Z,80.75
2018-01-07T19:54:14.163Z,80.53
2018-01-07T19:56:41.730Z,80.45
2018-01-07T19:59:09.309Z,80.83
2018-01-07T20:01:36.860Z,80.85
2018-01-07T20:04:04.486Z,80.45
2018-01-07T20:06:33.059Z,80.08
2018-01-07T20:09:00.656Z,80.12
2018-01-07T20:11:33.771Z,79.68
2018-01-07T20:14:01.589Z,79.81
2018-01-07T20:16:29.174Z,79.34
2018-01-07T20:18:56.772Z,78.75
2018-01-07T20:21:24.304Z,78.49
2018-01-07T20:23:52.748Z,78.30
2018-01-07T20:26:20.293Z,77.91
2018-01-07T20:28:47.886Z,77.52
2018-01-07T20:31:18.302Z,77.61
2018-01-07T20:33:45.869Z,77.67
2018-01-07T20:36:14.126Z,77.67
2018-01-07T20:38:41.680Z,77.82
2018-01-07T20:41:09.281Z,77.63
2018-01-07T20:43:36.857Z,77.60
2018-01-07T20:46:04.423Z,77.76
2018-01-07T20:48:32.192Z,77.57
2018-01-07T20:50:59.915Z,77.39
2018-01-07T20:53:27.510Z,77.15
2018-01-07T20:55:55.232Z,77.12
2018-01-07T20:58:23.761Z,77.26
2018-01-07T21:00:51.481Z,77.36
2018-01-07T21:03:19.193Z,77.25
2018-01-07T21:05:46.784Z,77.30
2018-01-07T21:08:14.344Z,77.78
2018-01-07T21:10:42.702Z,77.65
2018-01-07T21:13:10.408Z,77.58
2018-01-07T21:15:37.963Z,77.39
2018-01-07T21:20:47.550Z,77.32
2018-01-07T21:23:15.121Z,77.39
2018-01-07T21:25:42.681Z,77.76
2018-01-07T21:28:10.241Z,77.63
2018-01-07T21:30:37.883Z,77.65
2018-01-07T21:33:05.519Z,77.66
2018-01-07T21:35:33.154Z,77.62
2018-01-07T21:38:00.817Z,77.59
2018-01-07T21:40:29.233Z,77.47
2018-01-07T21:42:57.208Z,77.51
2018-01-07T21:45:25.003Z,77.48
2018-01-07T21:47:52.585Z,77.29
2018-01-07T21:50:21.098Z,77.03
2018-01-07T21:52:48.655Z,77.11
2018-01-07T21:55:17.136Z,77.38
2018-01-07T21:57:44.726Z,77.13
2018-01-07T22:00:33.864Z,77.71
2018-01-07T22:03:13.398Z,77.40
2018-01-07T22:05:49.469Z,77.89
2018-01-07T22:08:17.854Z,78.06
2018-01-07T22:10:45.884Z,78.06
2018-01-07T22:13:13.475Z,77.72
2018-01-07T22:15:41.103Z,78.07
2018-01-07T22:18:08.930Z,77.84
2018-01-07T22:20:36.435Z,78.03
2018-01-07T22:23:03.930Z,77.55
2018-01-07T22:25:31.490Z,77.56
2018-01-07T22:27:58.948Z,77.50
2018-01-07T22:30:26.516Z,77.23
2018-01-07T22:32:54.730Z,78.92
2018-01-07T22:35:22.310Z,78.45
2018-01-07T22:37:49.807Z,78.68
2018-01-07T22:40:18.298Z,78.56
2018-01-07T22:42:45.865Z,76.33
2018-01-07T22:45:13.457Z,77.27
2018-01-07T22:50:37.227Z,73.76
2018-01-07T22:53:05.037Z,74.01
2018-01-07T22:55:32.571Z,75.08
2018-01-07T22:58:00.076Z,74.80
2018-01-07T23:00:27.595Z,74.96
2018-01-07T23:02:55.128Z,75.60
2018-01-07T23:05:22.716Z,74.82
2018-01-07T23:07:50.340Z,74.32
2018-01-07T23:10:17.871Z,74.32
2018-01-07T23:12:45.463Z,75.00
2018-01-07T23:15:13.002Z,75.34
2018-01-07T23:17:40.529Z,75.07
2018-01-07T23:20:08.023Z,74.90
2018-01-07T23:22:35.531Z,75.57
2018-01-07T23:25:03.044Z,75.96
2018-01-07T23:27:30.612Z,76.38
2018-01-07T23:29:58.130Z,76.85
2018-01-07T23:32:25.722Z,76.99
2018-01-07T23:34:53.232Z,76.85
2018-01-07T23:37:20.748Z,77.73
2018-01-07T23:39:48.260Z,77.85
2018-01-07T23:42:15.877Z,77.44
2018-01-07T23:44:43.440Z,77.69
2018-01-07T23:47:10.934Z,77.96
2018-01-07T23:49:45.131Z,77.96
2018-01-07T23:52:15.724Z,78.07
2018-01-07T23:54:43.534Z,78.38
2018-01-07T23:57:11.122Z,78.37
2018-01-07T23:59:39.775Z,78.48
